Latest Weather Observations for Temora

IDN60801

Issued at 12:35 pm EST Friday 18 April 2014 (issued every 30 minutes, with the page automatically refreshed every 10 minutes)

About weather observations | Map of weather stations | Latest weather observations for NSW | Other Formats
Station Details ID: 073151 Name: TEMORA AIRPORT Lat: -34.43 Lon: 147.51 Height: 280.5 m
Data from the previous 72 hours. | See also: Recent months at Temora
Date/Time
EST
Temp
°C
App
Temp
°C
Dew
Point
Rel
Hum
%
Delta-T
°C
Wind Press
QNH
hPa
Press
MSL
hPa
Rain
since 9 am
mm
Dir
 
Spd
km/h
Gust
km/h
Spd
kts
Gust
kts
18/12:30pm 21.4 16.2 9.0 45 6.7 W 26 37 14 20 1016.7 - 0.0
18/12:00pm 22.3 16.7 8.8 42 7.3 W 28 35 15 19 1017.0 1016.6 0.0
18/11:30am 21.2 17.0 9.8 48 6.2 W 22 37 12 20 1017.6 - 0.0
18/11:00am 20.5 17.4 10.3 52 5.6 WNW 17 26 9 14 1018.0 - 0.0
18/10:30am 19.8 17.8 11.6 59 4.6 NNW 13 19 7 10 1018.3 - 0.0
18/10:00am 18.0 17.5 12.7 71 3.0 N 7 11 4 6 1018.6 - 0.0
18/09:30am 15.7 14.8 11.5 76 2.3 N 7 11 4 6 1019.1 - 0.0
18/09:00am 14.1 13.1 10.9 81 1.7 N 7 9 4 5 1019.4 1018.9 0.0
18/08:30am 11.7 11.9 10.4 92 0.7 CALM 0 7 0 4 1019.4 - 0.0
18/08:00am 9.4 9.2 9.1 98 0.2 CALM 0 0 0 0 1019.5 - 0.0
18/07:30am 7.7 7.1 7.4 98 0.1 CALM 0 2 0 1 1019.1 - 0.0
18/07:00am 6.6 5.7 6.2 97 0.2 CALM 0 0 0 0 1019.0 - 0.0
18/06:30am 6.7 5.9 6.4 98 0.1 CALM 0 0 0 0 1018.8 - 0.0
18/06:00am 6.5 5.6 6.2 98 0.1 CALM 0 0 0 0 1018.6 1018.2 0.0
18/05:30am 6.4 5.4 5.8 96 0.3 CALM 0 0 0 0 1018.5 - 0.0
18/05:00am 7.1 6.3 6.7 97 0.2 CALM 0 0 0 0 1018.5 - 0.0
18/04:30am 6.7 5.9 6.3 97 0.2 CALM 0 0 0 0 1018.6 - 0.0
18/04:00am 6.8 5.9 6.1 95 0.3 CALM 0 0 0 0 1018.6 - 0.0
18/03:30am 7.6 7.0 7.2 97 0.2 CALM 0 0 0 0 1018.6 - 0.0
18/03:00am 7.3 6.5 6.7 96 0.3 CALM 0 0 0 0 1019.0 1018.5 0.0
18/02:30am 7.3 6.5 6.7 96 0.3 CALM 0 0 0 0 1019.2 - 0.0
18/02:00am 7.4 6.6 6.7 95 0.3 CALM 0 0 0 0 1019.3 - 0.0
18/01:30am 7.8 7.1 7.1 95 0.3 S 0 0 0 0 1019.5 - 0.0
18/01:00am 8.0 6.1 7.4 96 0.3 S 7 9 4 5 1019.6 - 0.0
18/12:30am 7.9 6.1 7.1 95 0.4 SSW 6 7 3 4 1019.8 - 0.0
18/12:00am 8.1 6.7 7.3 95 0.4 SSW 4 7 2 4 1020.0 1019.5 0.0
 
Date/Time
EST
Temp
°C
App
Temp
°C
Dew
Point
Rel
Hum
%
Delta-T
°C
Wind Press
QNH
hPa
Press
MSL
hPa
Rain
since 9 am
mm
Dir
 
Spd
km/h
Gust
km/h
Spd
kts
Gust
kts
17/11:30pm 8.1 7.5 7.2 94 0.4 CALM 0 0 0 0 1020.1 - 0.0
17/11:00pm 8.8 8.3 8.0 95 0.4 CALM 0 0 0 0 1020.4 - 0.0
17/10:30pm 8.7 6.9 7.8 94 0.4 S 7 7 4 4 1020.6 - 0.0
17/10:00pm 9.0 7.4 7.8 92 0.6 SSW 6 7 3 4 1020.7 - 0.0
17/09:30pm 9.5 7.7 8.1 91 0.7 SSW 7 7 4 4 1020.7 - 0.0
17/09:00pm 10.0 9.7 8.6 91 0.7 CALM 0 0 0 0 1020.7 1020.3 0.0
17/08:30pm 10.1 9.8 8.5 90 0.8 CALM 0 0 0 0 1020.6 - 0.0
17/08:00pm 11.3 9.8 8.5 83 1.4 S 6 7 3 4 1020.5 - 0.0
17/07:30pm 12.1 10.6 9.3 83 1.4 SSW 7 7 4 4 1020.4 - 0.0
17/07:00pm 13.2 12.0 9.6 79 1.9 SSW 6 7 3 4 1020.1 - 0.0
17/06:30pm 14.2 13.0 9.4 73 2.5 SSW 6 7 3 4 1020.0 - 0.0
17/06:00pm 15.7 14.2 9.1 65 3.4 S 7 9 4 5 1019.8 1019.3 0.0
17/05:30pm 18.2 16.3 9.0 55 4.9 SSW 9 11 5 6 1019.7 - 0.0
17/05:00pm 19.4 16.7 9.0 51 5.5 SSW 13 17 7 9 1019.6 - 0.0
17/04:30pm 20.2 17.8 8.8 48 6.1 SSW 11 17 6 9 1019.5 - 0.0
17/04:00pm 20.9 18.6 8.9 46 6.4 SSW 11 17 6 9 1019.5 - 0.0
17/03:30pm 21.1 19.1 8.7 45 6.6 SW 9 19 5 10 1019.5 - 0.0
17/03:00pm 21.2 19.1 8.1 43 6.9 SW 9 15 5 8 1019.6 1019.1 0.0
17/02:30pm 21.4 18.9 10.9 51 5.8 WSW 15 22 8 12 1019.7 - 0.0
17/02:00pm 20.8 18.3 9.7 49 6.0 SW 13 20 7 11 1019.9 - 0.0
17/01:30pm 20.5 19.5 10.9 54 5.3 W 7 17 4 9 1020.2 - 0.0
17/01:00pm 20.7 18.8 9.0 47 6.3 WSW 9 15 5 8 1020.4 - 0.0
17/12:30pm 20.6 19.8 11.0 54 5.3 SSW 6 11 3 6 1020.7 - 0.0
17/12:00pm 19.0 18.5 9.5 54 5.1 W 2 13 1 7 1021.3 1020.9 0.0
17/11:30am 18.7 16.6 9.8 56 4.8 S 11 17 6 9 1021.6 - 0.0
17/11:00am 19.8 19.2 10.5 55 5.1 S 4 11 2 6 1021.9 - 0.0
17/10:30am 19.6 19.7 11.4 59 4.6 NE 2 6 1 3 1022.0 - 0.0
17/10:00am 18.2 18.0 10.6 61 4.1 E 2 7 1 4 1022.1 - 0.0
17/09:30am 17.4 17.8 11.4 68 3.3 CALM 0 0 0 0 1022.2 - 0.0
17/09:00am 15.7 15.7 11.1 74 2.5 S 2 7 1 4 1022.1 1021.7 0.0
17/08:30am 12.7 13.1 11.4 92 0.7 CALM 0 0 0 0 1022.1 - 0.0
17/08:00am 10.3 10.3 9.8 97 0.3 CALM 0 0 0 0 1021.9 - 0.0
17/07:30am 8.2 7.7 7.9 98 0.1 CALM 0 0 0 0 1021.5 - 0.0
17/07:00am 6.8 6.0 6.5 98 0.1 CALM 0 0 0 0 1021.2 - 0.0
17/06:30am 6.3 5.4 5.9 97 0.2 CALM 0 0 0 0 1020.6 - 0.0
17/06:00am 6.2 5.2 5.6 96 0.3 CALM 0 6 0 3 1020.3 1019.9 0.0
17/05:30am 7.2 5.3 6.9 98 0.1 S 6 7 3 4 1020.0 - 0.0
17/05:00am 6.4 5.1 6.0 97 0.2 SSW 2 7 1 4 1019.7 - 0.0
17/04:30am 7.3 5.3 7.0 98 0.1 S 7 9 4 5 1019.3 - 0.0
17/04:00am 7.0 5.1 6.6 97 0.2 S 6 7 3 4 1019.3 - 0.0
17/03:30am 7.3 5.3 6.9 97 0.2 S 7 9 4 5 1019.3 - 0.0
17/03:00am 7.2 6.4 6.6 96 0.3 CALM 0 0 0 0 1019.4 1018.9 0.0
17/02:30am 7.9 7.3 7.3 96 0.3 CALM 0 0 0 0 1019.5 - 0.0
17/02:00am 8.2 7.6 7.4 95 0.4 CALM 0 0 0 0 1019.8 - 0.0
17/01:30am 8.5 8.0 7.9 96 0.3 CALM 0 0 0 0 1020.1 - 0.0
17/01:00am 8.1 7.4 7.0 93 0.5 CALM 0 6 0 3 1020.1 - 0.0
17/12:30am 8.5 6.6 7.6 94 0.4 S 7 7 4 4 1020.1 - 0.0
17/12:00am 8.9 7.1 8.0 94 0.4 SSW 7 9 4 5 1020.3 1019.9 0.0
 
Date/Time
EST
Temp
°C
App
Temp
°C
Dew
Point
Rel
Hum
%
Delta-T
°C
Wind Press
QNH
hPa
Press
MSL
hPa
Rain
since 9 am
mm
Dir
 
Spd
km/h
Gust
km/h
Spd
kts
Gust
kts
16/11:30pm 9.5 9.2 8.6 94 0.4 CALM 0 0 0 0 1020.2 - 0.0
16/11:00pm 9.7 8.1 8.6 93 0.5 S 7 9 4 5 1020.3 - 0.0
16/10:30pm 9.6 8.5 8.5 93 0.5 SSW 4 9 2 5 1020.5 - 0.0
16/10:00pm 10.5 10.4 9.3 92 0.6 CALM 0 0 0 0 1020.5 - 0.0
16/09:30pm 11.0 10.9 9.6 91 0.7 CALM 0 0 0 0 1020.5 - 0.0
16/09:00pm 11.3 11.2 9.6 89 0.9 CALM 0 0 0 0 1020.4 1020.0 0.0
16/08:30pm 12.4 12.1 10.1 86 1.2 SSW 2 6 1 3 1020.1 - 0.0
16/08:00pm 11.8 10.4 9.0 83 1.4 SSW 6 7 3 4 1020.0 - 0.0
16/07:30pm 14.0 12.8 9.4 74 2.4 SSE 6 7 3 4 1019.8 - 0.0
16/07:00pm 15.7 13.7 10.0 69 3.0 SSE 11 13 6 7 1019.6 - 0.0
16/06:30pm 16.0 14.4 10.3 69 3.0 SSE 9 11 5 6 1019.5 - 0.0
16/06:00pm 17.5 15.8 9.9 61 4.1 SSE 9 11 5 6 1019.3 1018.8 0.0
16/05:30pm 19.1 17.9 9.6 54 5.1 S 6 7 3 4 1019.0 - 0.0
16/05:00pm 20.3 18.8 9.2 49 6.0 SSW 7 11 4 6 1018.8 - 0.0
16/04:30pm 21.5 19.4 8.4 43 7.0 SW 9 11 5 6 1018.6 - 0.0
16/04:00pm 21.3 18.7 6.0 37 7.8 SSW 9 13 5 7 1018.5 - 0.0
16/03:30pm 21.7 19.6 6.8 38 7.7 SSW 7 11 4 6 1018.6 - 0.0
16/03:00pm 20.0 18.0 8.7 48 6.0 SSW 9 9 5 5 1018.9 1018.4 0.0
16/02:30pm 21.5 19.7 9.4 46 6.6 SE 9 15 5 8 1019.0 - 0.0
16/02:00pm 21.7 20.1 8.6 43 7.0 WSW 7 11 4 6 1019.1 - 0.0
16/01:30pm 21.1 19.2 7.7 42 7.0 ENE 7 13 4 7 1019.3 - 0.0
16/01:00pm 20.4 18.4 8.7 47 6.2 S 9 13 5 7 1019.7 - 0.0
16/12:30pm 20.3 17.2 7.3 43 6.7 E 13 19 7 10 1020.0 - 0.0
16/12:00pm 20.3 17.7 7.7 44 6.6 NE 11 20 6 11 1020.6 1020.2 0.0
16/11:30am 19.7 16.8 8.1 47 6.1 E 13 20 7 11 1021.0 - 0.0
16/11:00am 19.6 16.1 8.6 49 5.8 E 17 24 9 13 1021.3 - 0.0
16/10:30am 18.6 15.2 9.1 54 5.0 E 17 20 9 11 1021.4 - 0.0
16/10:00am 18.1 14.8 9.5 57 4.6 E 17 22 9 12 1021.7 - 0.0
16/09:30am 16.8 13.1 9.5 62 3.9 ESE 19 22 10 12 1021.9 - 0.0
16/09:00am 15.8 12.0 9.2 65 3.4 E 19 26 10 14 1021.9 1021.5 0.0
16/08:30am 14.6 11.6 9.2 70 2.8 E 15 20 8 11 1022.0 - 0.0
16/08:00am 13.7 11.4 9.0 73 2.4 E 11 15 6 8 1021.9 - 0.0
16/07:30am 10.9 10.7 9.0 88 1.0 CALM 0 6 0 3 1021.6 - 0.0
16/07:00am 11.0 9.4 8.9 87 1.1 E 7 9 4 5 1021.1 - 0.0
16/06:30am 8.9 7.2 7.4 90 0.7 ESE 6 7 3 4 1020.8 - 0.0
16/06:00am 10.7 9.1 8.8 88 0.9 E 7 9 4 5 1020.8 1020.4 0.0
16/05:30am 9.3 7.7 8.7 96 0.3 ESE 7 11 4 6 1020.5 - 0.0
16/05:00am 7.4 5.3 6.5 94 0.4 S 7 9 4 5 1020.5 - 0.0
16/04:30am 10.1 8.7 9.5 96 0.3 E 7 9 4 5 1020.2 - 0.0
16/04:00am 8.1 6.2 7.7 97 0.2 SSE 7 7 4 4 1020.3 - 0.0
16/03:30am 7.6 5.5 6.7 94 0.4 S 7 7 4 4 1020.3 - 0.0
16/03:00am 9.9 8.4 9.1 95 0.4 ESE 7 9 4 5 1020.1 1019.7 0.0
16/02:30am 9.2 7.6 8.1 93 0.5 ESE 6 7 3 4 1020.3 - 0.0
16/02:00am 9.3 7.5 7.9 91 0.7 S 7 9 4 5 1020.7 - 0.0
16/01:30am 12.2 11.0 9.4 83 1.4 ESE 6 7 3 4 1020.9 - 0.0
16/01:00am 12.5 11.1 9.7 83 1.4 ESE 7 11 4 6 1021.1 - 0.0
16/12:30am 12.6 11.1 9.2 80 1.7 SE 7 11 4 6 1021.2 - 0.0
16/12:00am 13.6 12.4 9.6 77 2.1 ESE 6 7 3 4 1021.1 1020.7 0.0
 
Date/Time
EST
Temp
°C
App
Temp
°C
Dew
Point
Rel
Hum
%
Delta-T
°C
Wind Press
QNH
hPa
Press
MSL
hPa
Rain
since 9 am
mm
Dir
 
Spd
km/h
Gust
km/h
Spd
kts
Gust
kts
15/11:30pm 13.0 11.2 9.4 79 1.9 SE 9 13 5 7 1021.3 - 0.0
15/11:00pm 9.6 7.9 7.5 87 1.0 SSE 6 7 3 4 1021.3 - 0.0
15/10:30pm 9.9 8.2 8.5 91 0.7 S 7 9 4 5 1021.2 - 0.0
15/10:00pm 9.4 8.9 7.8 90 0.8 CALM 0 0 0 0 1021.1 - 0.0
15/09:30pm 9.7 9.0 8.5 92 0.6 SW 2 7 1 4 1020.9 - 0.0
15/09:00pm 9.4 7.3 6.8 84 1.2 S 7 7 4 4 1020.7 1020.3 0.0
15/08:30pm 11.8 9.8 8.6 81 1.6 S 9 9 5 5 1020.5 - 0.0
15/08:00pm 12.6 11.1 9.2 80 1.7 S 7 9 4 5 1020.4 - 0.0
15/07:30pm 12.5 11.0 9.0 79 1.8 SSW 7 9 4 5 1020.2 - 0.0
15/07:00pm 13.5 11.8 7.7 68 2.9 SSW 6 7 3 4 1020.2 - 0.0
15/06:30pm 16.5 14.4 8.2 58 4.3 SSE 9 11 5 6 1020.0 - 0.0
15/06:00pm 17.5 14.9 7.8 53 5.0 SSE 11 13 6 7 1019.8 1019.3 0.0
15/05:30pm 18.6 15.4 8.3 51 5.4 S 15 20 8 11 1019.6 - 0.0
15/05:00pm 20.2 18.5 8.2 46 6.3 SSE 7 11 4 6 1019.4 - 0.0
15/04:30pm 20.4 16.7 6.4 40 7.1 SE 15 20 8 11 1019.3 - 0.0
15/04:00pm 21.0 18.8 8.0 43 6.9 SSE 9 17 5 9 1019.4 - 0.0
15/03:30pm 20.6 17.9 7.2 42 6.9 SE 11 17 6 9 1019.5 - 0.0
15/03:00pm 19.7 17.7 8.7 49 5.8 S 9 13 5 7 1019.5 1019.0 0.0
15/02:30pm 21.2 18.5 9.1 46 6.5 SE 13 15 7 8 1019.6 - 0.0
15/02:00pm 21.1 19.6 9.0 46 6.5 SSE 7 17 4 9 1019.6 - 0.0
15/01:30pm 20.5 17.6 8.2 45 6.5 SSE 13 20 7 11 1019.8 - 0.0
15/01:00pm 20.8 18.8 8.8 46 6.4 ESE 9 13 5 7 1020.1 - 0.0

Other Formats:

Comma delimited format used in spreadsheet applications
http://www.bom.gov.au/fwo/IDN60801/IDN60801.95722.axf

JavaScript Object Notation format (JSON) in row-major order
http://www.bom.gov.au/fwo/IDN60801/IDN60801.95722.json